Search for airport 
image banner adimage banner adimage banner ad
image banner ad

H11 - Sunbury

Located in Sunbury, United States

ICAO - H11, IATA -

Data provided by Airmate  

General information

Coordinates: N40°54'47" W76°43'59"
Elevation is 430 feet MSL.
Magnetic variation is -12° East
View others Airports in Pennsylvania

Operational data

Special qualification required
Current time UTC:
Current local time:
Weather at : KSEG - Penn Valley ( 15 km )
METAR: KSEG 071253Z AUTO 00000KT 10SM BKN075 10/04 A2992 RMK AO2 SLP131 T01000039
View NOTAMs / SUP AIP / TFR affecting this airport [VIEW]
Communications frequencies: [VIEW]

Runways:

RWY identifierQFULength (ft)Width (ft)SurfaceLDA (ft)
07W5000250WATER
25W5000250WATER

Airport contact information

Address: Sunbury United States

Satellite view of H11